Time;durP1;ratioP1;P1;durP2;ratioP2;P2;SDS_P1;SDS_P2;PMS_P1;PMS_P2;Temp;Humidity;BMP_temperature;BMP_pressure;BME280_temperature;BME280_humidity;BME280_pressure;Samples;Min_cycle;Max_cycle;Signal;HPM_P1;HPM_P2
2021/04/04 00:01:43;;;;;;;;;;;20.00;56.80;;;;;;5054650;28;1906;-67
2021/04/04 00:04:08;;;;;;;;;;;20.00;56.80;;;;;;5054545;28;1280;-68
2021/04/04 00:06:34;;;;;;;;;;;19.90;56.80;;;;;;5054527;28;1186;-68
2021/04/04 00:08:59;;;;;;;;;;;19.90;57.40;;;;;;5053290;28;1385;-68
2021/04/04 00:11:25;;;;;;;;;;;19.90;56.80;;;;;;5054493;28;1102;-67
2021/04/04 00:13:50;;;;;;;;;;;19.90;56.80;;;;;;5054086;28;1194;-68
2021/04/04 00:16:15;;;;;;;;;;;19.90;56.80;;;;;;5036156;28;1299;-68
2021/04/04 00:18:41;;;;;;;;;;;19.90;56.80;;;;;;5051923;28;1349;-67
2021/04/04 00:21:06;;;;;;;;;;;19.90;56.80;;;;;;5052511;28;1961;-68
2021/04/04 00:23:32;;;;;;;;;;;19.90;56.80;;;;;;5053499;28;1409;-68
2021/04/04 00:25:57;;;;;;;;;;;19.90;56.80;;;;;;5053767;28;1303;-68
2021/04/04 00:28:23;;;;;;;;;;;19.90;56.90;;;;;;5052789;28;1462;-68
2021/04/04 00:30:48;;;;;;;;;;;19.90;56.80;;;;;;5054019;28;1280;-69
2021/04/04 00:33:13;;;;;;;;;;;19.90;56.90;;;;;;5054483;28;1346;-68
2021/04/04 00:35:39;;;;;;;;;;;19.90;56.90;;;;;;5054259;28;1048;-67
2021/04/04 00:38:04;;;;;;;;;;;19.90;56.90;;;;;;5052465;28;1529;-67
2021/04/04 00:40:31;;;;;;;;;;;19.90;56.90;;;;;;5052363;28;1893;-67
2021/04/04 00:42:56;;;;;;;;;;;19.90;56.90;;;;;;5035835;28;1411;-67
2021/04/04 00:45:23;;;;;;;;;;;19.90;56.90;;;;;;5052502;28;1347;-67
2021/04/04 00:47:48;;;;;;;;;;;19.90;56.90;;;;;;5053688;28;1446;-67
2021/04/04 00:50:14;;;;;;;;;;;19.90;56.90;;;;;;5052479;28;1298;-67
2021/04/04 00:52:39;;;;;;;;;;;19.90;56.90;;;;;;5053691;28;1426;-68
2021/04/04 00:55:05;;;;;;;;;;;19.90;56.90;;;;;;5053406;28;1317;-68
2021/04/04 00:57:31;;;;;;;;;;;19.90;56.90;;;;;;5052714;28;1394;-68
2021/04/04 00:59:56;;;;;;;;;;;19.80;56.90;;;;;;5052463;28;1982;-69
2021/04/04 01:02:22;;;;;;;;;;;19.80;56.90;;;;;;5052076;28;1425;-68
2021/04/04 01:04:49;;;;;;;;;;;19.80;56.90;;;;;;5053298;28;1280;-68
2021/04/04 01:07:15;;;;;;;;;;;19.80;56.90;;;;;;5034828;28;1512;-68
2021/04/04 01:09:40;;;;;;;;;;;19.80;56.90;;;;;;5052664;28;1362;-68
2021/04/04 01:12:11;;;;;;;;;;;19.80;56.90;;;;;;5052910;28;1419;-68
2021/04/04 01:14:38;;;;;;;;;;;19.80;57.00;;;;;;5052840;28;1286;-68
2021/04/04 01:17:04;;;;;;;;;;;19.80;57.00;;;;;;5051698;28;1673;-68
2021/04/04 01:19:41;;;;;;;;;;;19.90;57.00;;;;;;5051447;28;1713;-68
2021/04/04 01:22:26;;;;;;;;;;;19.80;57.00;;;;;;5051570;28;1705;-68
2021/04/04 01:24:55;;;;;;;;;;;19.80;56.90;;;;;;5052128;28;1767;-69
2021/04/04 01:27:25;;;;;;;;;;;19.80;57.00;;;;;;5052366;28;1515;-70
2021/04/04 01:29:51;;;;;;;;;;;19.80;57.00;;;;;;5051659;28;1608;-69
2021/04/04 01:32:16;;;;;;;;;;;19.80;57.00;;;;;;5052711;28;1688;-69
2021/04/04 01:34:41;;;;;;;;;;;19.80;57.00;;;;;;5051617;28;1654;-68
2021/04/04 01:37:09;;;;;;;;;;;19.80;57.00;;;;;;5051102;28;1096;-69
2021/04/04 01:39:40;;;;;;;;;;;19.80;57.50;;;;;;5051573;28;1314;-68
2021/04/04 01:42:05;;;;;;;;;;;19.90;57.00;;;;;;5051259;28;1327;-69
2021/04/04 01:44:31;;;;;;;;;;;19.80;56.90;;;;;;5051289;28;1648;-68
2021/04/04 01:46:56;;;;;;;;;;;19.80;56.90;;;;;;5050990;28;1285;-68
2021/04/04 01:49:22;;;;;;;;;;;19.80;56.90;;;;;;5050228;28;1604;-68
2021/04/04 01:51:47;;;;;;;;;;;19.80;56.80;;;;;;5034800;28;1288;-68
2021/04/04 01:54:13;;;;;;;;;;;19.90;56.80;;;;;;5051309;28;1406;-68
2021/04/04 01:56:38;;;;;;;;;;;19.90;56.80;;;;;;5052746;28;1272;-67
2021/04/04 01:59:07;;;;;;;;;;;19.90;56.80;;;;;;5050532;28;1324;-69
2021/04/04 02:01:32;;;;;;;;;;;19.90;56.70;;;;;;5050798;28;1910;-69
2021/04/04 02:04:03;;;;;;;;;;;19.90;56.70;;;;;;5052358;28;1285;-68
2021/04/04 02:06:29;;;;;;;;;;;19.90;56.70;;;;;;5051056;28;1190;-68
2021/04/04 02:08:54;;;;;;;;;;;19.90;56.70;;;;;;5051172;28;1300;-68
2021/04/04 02:11:22;;;;;;;;;;;19.90;56.60;;;;;;5051201;28;1383;-68
2021/04/04 02:13:47;;;;;;;;;;;19.90;56.60;;;;;;5034086;28;1258;-69
2021/04/04 02:16:13;;;;;;;;;;;20.00;56.70;;;;;;5050943;28;1319;-69
2021/04/04 02:18:38;;;;;;;;;;;20.00;56.60;;;;;;5049301;28;1282;-69
2021/04/04 02:21:03;;;;;;;;;;;20.00;56.60;;;;;;5051599;28;1913;-69
2021/04/04 02:23:29;;;;;;;;;;;20.00;56.60;;;;;;5052274;28;1073;-69
2021/04/04 02:25:55;;;;;;;;;;;20.00;56.60;;;;;;5050793;28;1084;-69
2021/04/04 02:28:21;;;;;;;;;;;20.00;56.60;;;;;;5052041;28;1301;-68
2021/04/04 02:30:46;;;;;;;;;;;20.00;56.60;;;;;;5052019;28;1332;-69
2021/04/04 02:33:15;;;;;;;;;;;20.00;56.60;;;;;;5052294;28;1280;-69
2021/04/04 02:35:41;;;;;;;;;;;20.00;56.60;;;;;;5051037;28;1368;-68
2021/04/04 02:38:21;;;;;;;;;;;20.00;56.50;;;;;;5050987;28;1060;-68
2021/04/04 02:40:47;;;;;;;;;;;20.00;56.50;;;;;;5050758;28;1949;-68
2021/04/04 02:43:16;;;;;;;;;;;20.10;56.50;;;;;;5051245;28;1280;-68
2021/04/04 02:45:42;;;;;;;;;;;20.20;56.40;;;;;;5035639;28;1453;-68
2021/04/04 02:48:09;;;;;;;;;;;20.30;56.10;;;;;;5045568;28;1188;-69
2021/04/04 02:50:34;;;;;;;;;;;20.40;55.90;;;;;;5044714;28;1335;-68
2021/04/04 02:53:00;;;;;;;;;;;20.60;55.60;;;;;;5044495;28;1212;-68
2021/04/04 02:55:26;;;;;;;;;;;20.70;55.20;;;;;;5046890;28;1327;-68
2021/04/04 02:57:52;;;;;;;;;;;20.90;55.00;;;;;;5044240;28;1097;-68
2021/04/04 03:00:17;;;;;;;;;;;21.00;54.70;;;;;;5046041;28;1918;-68
2021/04/04 03:02:43;;;;;;;;;;;21.10;54.50;;;;;;5044527;28;1188;-69
2021/04/04 03:05:09;;;;;;;;;;;21.20;54.30;;;;;;5045324;28;1293;-69
2021/04/04 03:07:34;;;;;;;;;;;21.30;54.00;;;;;;5045137;28;1226;-69
2021/04/04 03:10:01;;;;;;;;;;;21.40;53.90;;;;;;5044354;28;1286;-69
2021/04/04 03:12:27;;;;;;;;;;;21.40;53.70;;;;;;5041466;28;1205;-69
2021/04/04 03:14:52;;;;;;;;;;;21.50;53.50;;;;;;5046681;28;1244;-69
2021/04/04 03:17:17;;;;;;;;;;;21.60;54.00;;;;;;5043199;28;1612;-68
2021/04/04 03:19:43;;;;;;;;;;;21.60;53.20;;;;;;5043680;28;1902;-68
2021/04/04 03:22:09;;;;;;;;;;;21.60;53.10;;;;;;5043396;28;1299;-69
2021/04/04 03:24:34;;;;;;;;;;;21.60;53.10;;;;;;5045461;28;1224;-69
2021/04/04 03:27:00;;;;;;;;;;;21.70;53.00;;;;;;5044921;28;1212;-69
2021/04/04 03:29:26;;;;;;;;;;;21.70;53.00;;;;;;5042694;28;1412;-68
2021/04/04 03:31:51;;;;;;;;;;;21.70;53.00;;;;;;5045384;28;1390;-68
2021/04/04 03:34:17;;;;;;;;;;;21.70;53.00;;;;;;5044651;28;1291;-68
2021/04/04 03:36:42;;;;;;;;;;;21.70;53.00;;;;;;5043807;28;1176;-69
2021/04/04 03:39:07;;;;;;;;;;;21.70;53.00;;;;;;5040746;28;1292;-69
2021/04/04 03:41:33;;;;;;;;;;;21.70;53.00;;;;;;5043191;28;1937;-69
2021/04/04 03:43:58;;;;;;;;;;;21.70;53.00;;;;;;5043411;28;1349;-69
2021/04/04 03:46:24;;;;;;;;;;;21.70;53.10;;;;;;5043750;28;1278;-69
2021/04/04 03:48:50;;;;;;;;;;;21.70;53.10;;;;;;5025809;28;1284;-69
2021/04/04 03:51:15;;;;;;;;;;;21.60;53.10;;;;;;5026659;28;1258;-69
2021/04/04 03:53:45;;;;;;;;;;;21.70;53.20;;;;;;5043144;28;1042;-69
2021/04/04 03:56:11;;;;;;;;;;;21.60;53.20;;;;;;5042288;28;1224;-68
2021/04/04 03:58:37;;;;;;;;;;;21.60;53.30;;;;;;5042165;28;1286;-68
2021/04/04 04:01:03;;;;;;;;;;;21.60;53.30;;;;;;5026865;28;1906;-68
2021/04/04 04:03:28;;;;;;;;;;;21.60;53.40;;;;;;5050155;28;1414;-68
2021/04/04 04:05:54;;;;;;;;;;;21.60;53.40;;;;;;5053182;28;1261;-68
2021/04/04 04:08:19;;;;;;;;;;;21.50;53.40;;;;;;5052479;28;1123;-68
2021/04/04 04:10:44;;;;;;;;;;;21.50;53.50;;;;;;5035796;28;1337;-68
2021/04/04 04:13:10;;;;;;;;;;;21.50;53.60;;;;;;5036106;28;1416;-68
2021/04/04 04:15:35;;;;;;;;;;;21.50;53.60;;;;;;5053062;28;1048;-68
2021/04/04 04:18:03;;;;;;;;;;;21.50;53.70;;;;;;5053463;28;1365;-68
2021/04/04 04:20:28;;;;;;;;;;;21.40;53.70;;;;;;5052806;28;1961;-68
2021/04/04 04:22:56;;;;;;;;;;;21.40;53.80;;;;;;5053780;28;1331;-68
2021/04/04 04:25:21;;;;;;;;;;;21.40;53.80;;;;;;5054234;28;1311;-68
2021/04/04 04:27:47;;;;;;;;;;;21.40;53.90;;;;;;5052340;28;1276;-68
2021/04/04 04:30:12;;;;;;;;;;;21.40;53.90;;;;;;5052749;28;1299;-68
2021/04/04 04:32:39;;;;;;;;;;;21.30;54.00;;;;;;5038415;28;2359;-68
2021/04/04 04:35:04;;;;;;;;;;;21.30;54.00;;;;;;5036386;28;1246;-68
2021/04/04 04:37:30;;;;;;;;;;;21.30;54.00;;;;;;5051931;28;1069;-69
2021/04/04 04:39:56;;;;;;;;;;;21.30;54.10;;;;;;5051421;28;1902;-68
2021/04/04 04:42:21;;;;;;;;;;;21.30;54.10;;;;;;5050099;28;1057;-68
2021/04/04 04:44:47;;;;;;;;;;;21.20;54.10;;;;;;5052197;28;1092;-67
2021/04/04 04:47:12;;;;;;;;;;;21.20;54.20;;;;;;5050979;28;1259;-69
2021/04/04 04:49:38;;;;;;;;;;;21.20;54.20;;;;;;5052027;28;1325;-71
2021/04/04 04:52:03;;;;;;;;;;;21.20;54.30;;;;;;5035698;28;1580;-71
2021/04/04 04:54:29;;;;;;;;;;;21.20;54.30;;;;;;5035147;28;1589;-71
2021/04/04 04:56:54;;;;;;;;;;;21.20;54.30;;;;;;5052008;28;1033;-71
2021/04/04 04:59:20;;;;;;;;;;;21.10;54.40;;;;;;5034815;28;1403;-71
2021/04/04 05:01:46;;;;;;;;;;;21.20;54.40;;;;;;5052068;28;1894;-70
2021/04/04 05:04:11;;;;;;;;;;;21.10;54.40;;;;;;5052100;28;1287;-71
2021/04/04 05:06:37;;;;;;;;;;;21.10;54.50;;;;;;5053244;28;1174;-71
2021/04/04 05:09:02;;;;;;;;;;;21.10;54.50;;;;;;5051052;28;1366;-70
2021/04/04 05:11:28;;;;;;;;;;;21.10;54.50;;;;;;5053274;28;1450;-70
2021/04/04 05:13:53;;;;;;;;;;;21.10;54.60;;;;;;5053650;28;1207;-70
2021/04/04 05:16:19;;;;;;;;;;;21.00;54.60;;;;;;5051925;28;1175;-72
2021/04/04 05:18:48;;;;;;;;;;;21.00;54.60;;;;;;5051293;28;1331;-70
2021/04/04 05:21:20;;;;;;;;;;;21.00;54.70;;;;;;5035182;28;1906;-70
2021/04/04 05:23:45;;;;;;;;;;;21.00;54.70;;;;;;5052574;28;1061;-71
2021/04/04 05:26:11;;;;;;;;;;;21.00;54.70;;;;;;5051529;28;1259;-71
2021/04/04 05:28:36;;;;;;;;;;;21.00;54.70;;;;;;5051146;28;1276;-70
2021/04/04 05:31:02;;;;;;;;;;;20.90;54.70;;;;;;5051642;28;1332;-71
2021/04/04 05:33:27;;;;;;;;;;;20.90;55.40;;;;;;5035233;28;1521;-71
2021/04/04 05:35:53;;;;;;;;;;;20.90;54.80;;;;;;5051350;28;1286;-69
2021/04/04 05:38:18;;;;;;;;;;;20.90;54.80;;;;;;5051805;28;1326;-69
2021/04/04 05:40:44;;;;;;;;;;;20.90;54.90;;;;;;5035252;28;1902;-70
2021/04/04 05:43:11;;;;;;;;;;;20.90;54.90;;;;;;5051827;28;1317;-71
2021/04/04 05:45:37;;;;;;;;;;;20.90;54.90;;;;;;5052818;28;1080;-71
2021/04/04 05:48:12;;;;;;;;;;;20.80;54.90;;;;;;5051626;28;1328;-71
2021/04/04 05:50:46;;;;;;;;;;;20.90;55.00;;;;;;5052134;28;1385;-69
2021/04/04 05:53:18;;;;;;;;;;;20.80;55.00;;;;;;5053944;28;1347;-69
2021/04/04 05:55:44;;;;;;;;;;;20.80;55.00;;;;;;5051222;28;1375;-67
2021/04/04 05:58:28;;;;;;;;;;;20.80;55.00;;;;;;5051683;28;1072;-69
2021/04/04 06:00:53;;;;;;;;;;;20.80;55.10;;;;;;5052188;28;1914;-69
2021/04/04 06:03:39;;;;;;;;;;;20.80;55.10;;;;;;5051483;28;1308;-69
2021/04/04 06:06:24;;;;;;;;;;;20.80;55.10;;;;;;5051341;28;1170;-69
2021/04/04 06:09:08;;;;;;;;;;;20.80;55.10;;;;;;5051229;28;1271;-68
2021/04/04 06:11:47;;;;;;;;;;;20.80;55.10;;;;;;5051970;28;1059;-68
2021/04/04 06:14:19;;;;;;;;;;;20.80;55.20;;;;;;5051627;28;1227;-69
2021/04/04 06:17:04;;;;;;;;;;;20.80;55.20;;;;;;5050818;28;1334;-68
2021/04/04 06:19:51;;;;;;;;;;;20.80;55.20;;;;;;5052295;28;1342;-68
2021/04/04 06:22:23;;;;;;;;;;;20.80;55.20;;;;;;5045147;28;1174;-67
2021/04/04 06:24:56;;;;;;;;;;;20.70;55.20;;;;;;5054050;28;1367;-67
2021/04/04 06:27:30;;;;;;;;;;;20.70;55.20;;;;;;5053391;28;1272;-66
2021/04/04 06:30:02;;;;;;;;;;;20.70;55.20;;;;;;5052944;28;1393;-65
2021/04/04 06:32:47;;;;;;;;;;;20.70;55.30;;;;;;5054583;28;1284;-66
2021/04/04 06:35:13;;;;;;;;;;;20.70;55.30;;;;;;5054009;28;1263;-67
2021/04/04 06:38:02;;;;;;;;;;;20.70;55.30;;;;;;5035971;28;1384;-66
2021/04/04 06:40:28;;;;;;;;;;;20.70;55.30;;;;;;5053287;28;1961;-66
2021/04/04 06:43:03;;;;;;;;;;;20.70;55.30;;;;;;5053602;28;1297;-66
2021/04/04 06:45:49;;;;;;;;;;;20.70;55.40;;;;;;5054751;28;1731;-66
2021/04/04 06:48:17;;;;;;;;;;;20.70;55.40;;;;;;5053044;28;1268;-66
2021/04/04 06:50:44;;;;;;;;;;;20.70;55.40;;;;;;5054524;28;1274;-66
2021/04/04 06:53:17;;;;;;;;;;;20.60;55.40;;;;;;5052530;28;1276;-67
2021/04/04 06:55:48;;;;;;;;;;;20.60;55.40;;;;;;5052500;28;1070;-67
2021/04/04 06:58:28;;;;;;;;;;;20.60;55.50;;;;;;5036179;28;1268;-68
2021/04/04 07:01:03;;;;;;;;;;;20.60;55.50;;;;;;5020570;28;1906;-66
2021/04/04 07:03:29;;;;;;;;;;;20.60;55.50;;;;;;5054908;28;1276;-68
2021/04/04 07:06:04;;;;;;;;;;;20.60;55.50;;;;;;5054180;28;1150;-68
2021/04/04 07:08:48;;;;;;;;;;;20.60;55.50;;;;;;5051987;28;1315;-69
2021/04/04 07:11:33;;;;;;;;;;;20.60;55.50;;;;;;5055610;28;1298;-69
2021/04/04 07:14:17;;;;;;;;;;;20.60;55.50;;;;;;5055560;28;1194;-69
2021/04/04 07:16:59;;;;;;;;;;;20.60;55.60;;;;;;5055221;28;1282;-69
2021/04/04 07:19:36;;;;;;;;;;;20.60;55.50;;;;;;5036945;28;1339;-68
2021/04/04 07:22:18;;;;;;;;;;;20.60;55.60;;;;;;5053854;28;1973;-69
2021/04/04 07:24:43;;;;;;;;;;;20.60;55.60;;;;;;5053530;28;1377;-69
2021/04/04 07:27:10;;;;;;;;;;;20.50;55.60;;;;;;5054695;28;1417;-69
2021/04/04 07:29:38;;;;;;;;;;;20.50;55.60;;;;;;5053485;28;1551;-69
2021/04/04 07:32:05;;;;;;;;;;;20.50;55.60;;;;;;5054905;28;1272;-69
2021/04/04 07:34:51;;;;;;;;;;;20.50;55.60;;;;;;5053710;28;1276;-69
2021/04/04 07:37:23;;;;;;;;;;;20.50;55.70;;;;;;5052836;28;1255;-69
2021/04/04 07:39:51;;;;;;;;;;;20.50;55.70;;;;;;5053724;28;1388;-69
2021/04/04 07:42:17;;;;;;;;;;;20.50;55.70;;;;;;5054788;28;1961;-69
2021/04/04 07:44:51;;;;;;;;;;;20.50;55.70;;;;;;5053509;28;1277;-69
2021/04/04 07:47:21;;;;;;;;;;;20.50;55.70;;;;;;5053477;28;1181;-69
2021/04/04 07:49:48;;;;;;;;;;;20.50;55.70;;;;;;5053573;28;1315;-69
2021/04/04 07:52:19;;;;;;;;;;;20.50;55.80;;;;;;5054718;28;1303;-69
2021/04/04 07:55:17;;;;;;;;;;;20.50;55.80;;;;;;5053640;28;1366;-69
2021/04/04 07:57:50;;;;;;;;;;;20.40;55.80;;;;;;5024618;28;1292;-69
2021/04/04 08:00:15;;;;;;;;;;;20.50;55.80;;;;;;5082390;22;1955;-66
2021/04/04 08:03:00;;;;;;;;;;;20.50;55.80;;;;;;5064415;28;1371;-66
2021/04/04 08:05:25;;;;;;;;;;;20.40;55.80;;;;;;5072397;28;1289;-66
2021/04/04 08:07:53;;;;;;;;;;;20.40;55.80;;;;;;5072370;28;1264;-67
2021/04/04 08:10:23;;;;;;;;;;;20.40;55.80;;;;;;5074468;28;1289;-66
2021/04/04 08:13:07;;;;;;;;;;;20.40;55.90;;;;;;5074270;28;1312;-66
2021/04/04 08:15:44;;;;;;;;;;;20.40;55.80;;;;;;5062791;28;1161;-66
2021/04/04 08:18:10;;;;;;;;;;;20.50;55.90;;;;;;5073273;28;1407;-66
2021/04/04 08:20:55;;;;;;;;;;;20.40;55.90;;;;;;5066353;28;2583;-66
2021/04/04 08:23:50;;;;;;;;;;;20.40;55.90;;;;;;5073939;28;1388;-66
2021/04/04 08:26:19;;;;;;;;;;;20.40;55.90;;;;;;5053702;28;2015;-66
2021/04/04 08:28:45;;;;;;;;;;;20.40;55.90;;;;;;5056270;28;2309;-66
2021/04/04 08:31:21;;;;;;;;;;;20.40;55.90;;;;;;5070181;28;1562;-66
2021/04/04 08:33:54;;;;;;;;;;;20.40;55.90;;;;;;5073394;28;1487;-66
2021/04/04 08:36:20;;;;;;;;;;;20.40;55.90;;;;;;5070547;28;1621;-66
2021/04/04 08:38:46;;;;;;;;;;;20.40;55.90;;;;;;5053752;28;1619;-66
2021/04/04 08:41:13;;;;;;;;;;;20.40;55.90;;;;;;5066789;28;1894;-66
2021/04/04 08:43:38;;;;;;;;;;;20.40;55.90;;;;;;5063823;28;1623;-66
2021/04/04 08:46:23;;;;;;;;;;;20.40;55.90;;;;;;5071631;28;1711;-66
2021/04/04 08:48:48;;;;;;;;;;;20.40;55.90;;;;;;5073546;28;1530;-66
2021/04/04 08:51:14;;;;;;;;;;;20.40;56.00;;;;;;5071937;28;1656;-66
2021/04/04 08:53:41;;;;;;;;;;;20.40;55.90;;;;;;5071704;28;1651;-66
2021/04/04 08:56:07;;;;;;;;;;;20.40;56.00;;;;;;5071290;28;1669;-66
2021/04/04 08:58:36;;;;;;;;;;;20.40;55.90;;;;;;5069960;28;1370;-66
2021/04/04 09:01:16;;;;;;;;;;;20.40;56.00;;;;;;5072466;28;1977;-67
2021/04/04 09:03:43;;;;;;;;;;;20.40;55.90;;;;;;5071599;28;1169;-66
2021/04/04 09:06:08;;;;;;;;;;;20.40;56.00;;;;;;5068948;28;1276;-65
2021/04/04 09:08:35;;;;;;;;;;;20.40;55.90;;;;;;5063079;28;1437;-66
2021/04/04 09:11:00;;;;;;;;;;;20.40;56.00;;;;;;5073472;28;1367;-66
2021/04/04 09:13:29;;;;;;;;;;;20.40;56.00;;;;;;5061571;28;1470;-66
2021/04/04 09:15:56;;;;;;;;;;;20.40;56.00;;;;;;5084825;28;1402;-66
2021/04/04 09:18:21;;;;;;;;;;;20.40;56.00;;;;;;5074197;28;1242;-66
2021/04/04 09:20:47;;;;;;;;;;;20.40;56.00;;;;;;5060287;28;1972;-66
2021/04/04 09:23:13;;;;;;;;;;;20.40;56.00;;;;;;5061845;28;1200;-65
2021/04/04 09:25:47;;;;;;;;;;;20.30;55.90;;;;;;5065280;28;1258;-65
2021/04/04 09:28:13;;;;;;;;;;;20.40;56.00;;;;;;5070941;28;1392;-66
2021/04/04 09:30:39;;;;;;;;;;;20.40;56.00;;;;;;5070703;28;1597;-66
2021/04/04 09:33:06;;;;;;;;;;;20.40;56.00;;;;;;5071290;28;1648;-66
2021/04/04 09:35:31;;;;;;;;;;;20.30;55.90;;;;;;5071514;28;1369;-66
2021/04/04 09:38:03;;;;;;;;;;;20.40;56.00;;;;;;5072118;28;1606;-66
2021/04/04 09:40:28;;;;;;;;;;;20.30;55.90;;;;;;5071546;28;1957;-66
2021/04/04 09:42:54;;;;;;;;;;;20.40;56.00;;;;;;5071049;28;1613;-65
2021/04/04 09:45:20;;;;;;;;;;;20.30;55.90;;;;;;5071699;28;1821;-65
2021/04/04 09:47:46;;;;;;;;;;;20.30;55.90;;;;;;5071804;28;1623;-66
2021/04/04 09:50:18;;;;;;;;;;;20.40;56.00;;;;;;5071435;28;1755;-65
2021/04/04 09:52:43;;;;;;;;;;;20.30;55.90;;;;;;5071571;28;1757;-65
2021/04/04 09:55:10;;;;;;;;;;;20.40;56.00;;;;;;5071805;28;1653;-65
2021/04/04 09:57:39;;;;;;;;;;;20.40;56.00;;;;;;5070438;28;1369;-65
2021/04/04 10:00:24;;;;;;;;;;;20.30;55.90;;;;;;5064748;28;1965;-65
2021/04/04 10:02:51;;;;;;;;;;;20.30;55.90;;;;;;5069643;28;1344;-65
2021/04/04 10:05:29;;;;;;;;;;;20.30;55.90;;;;;;5071515;28;1658;-65
2021/04/04 10:08:05;;;;;;;;;;;20.30;56.00;;;;;;5064991;28;1640;-65
2021/04/04 10:10:31;;;;;;;;;;;20.30;56.00;;;;;;5057744;28;1404;-66
2021/04/04 10:12:57;;;;;;;;;;;20.30;56.00;;;;;;5065829;28;1822;-65
2021/04/04 10:15:22;;;;;;;;;;;20.30;56.00;;;;;;5061263;28;1495;-65
2021/04/04 10:17:52;;;;;;;;;;;20.30;56.00;;;;;;5068223;28;1571;-65
2021/04/04 10:20:17;;;;;;;;;;;20.30;56.00;;;;;;5069013;28;1977;-65
2021/04/04 10:22:49;;;;;;;;;;;20.30;56.10;;;;;;5069552;28;1683;-65
2021/04/04 10:25:15;;;;;;;;;;;20.30;56.00;;;;;;5070809;28;1605;-65
2021/04/04 10:27:41;;;;;;;;;;;20.30;56.10;;;;;;5068784;28;1715;-65
2021/04/04 10:30:15;;;;;;;;;;;20.30;56.10;;;;;;5070254;28;1621;-66
2021/04/04 10:32:40;;;;;;;;;;;20.30;56.10;;;;;;5070008;28;1485;-66
2021/04/04 10:35:07;;;;;;;;;;;20.30;56.10;;;;;;5071921;28;1609;-66
2021/04/04 10:37:32;;;;;;;;;;;20.30;56.10;;;;;;5065059;28;1619;-66
2021/04/04 10:40:02;;;;;;;;;;;20.30;56.10;;;;;;5069333;28;1566;-66
2021/04/04 10:42:28;;;;;;;;;;;20.20;56.10;;;;;;5069826;28;1700;-66
2021/04/04 10:45:13;;;;;;;;;;;20.30;56.10;;;;;;5070251;28;1671;-66
2021/04/04 10:47:39;;;;;;;;;;;20.30;56.10;;;;;;5068213;28;1376;-66
2021/04/04 10:50:09;;;;;;;;;;;20.30;56.10;;;;;;5070000;28;1597;-66
2021/04/04 10:52:35;;;;;;;;;;;20.30;56.10;;;;;;5069080;28;1385;-66
2021/04/04 10:55:00;;;;;;;;;;;20.20;56.10;;;;;;5069683;28;1099;-66
2021/04/04 10:57:27;;;;;;;;;;;20.30;56.10;;;;;;5069644;28;1414;-66
2021/04/04 10:59:53;;;;;;;;;;;20.30;56.10;;;;;;5069415;28;1805;-66
2021/04/04 11:02:18;;;;;;;;;;;20.30;56.10;;;;;;5069562;28;1965;-68
2021/04/04 11:04:45;;;;;;;;;;;20.30;56.10;;;;;;5069533;28;1516;-68
2021/04/04 11:07:10;;;;;;;;;;;20.30;56.10;;;;;;5058129;28;1515;-67
2021/04/04 11:09:36;;;;;;;;;;;20.30;56.20;;;;;;5072787;28;1460;-68
2021/04/04 11:12:01;;;;;;;;;;;20.30;56.10;;;;;;5074583;28;1446;-67
2021/04/04 11:14:27;;;;;;;;;;;20.30;56.10;;;;;;5074449;28;1447;-68
2021/04/04 11:16:54;;;;;;;;;;;20.20;56.00;;;;;;5073131;28;1818;-67
2021/04/04 11:19:19;;;;;;;;;;;20.30;56.10;;;;;;5072115;28;977;-68
2021/04/04 11:21:45;;;;;;;;;;;20.30;56.10;;;;;;5072806;28;1906;-68
2021/04/04 11:24:13;;;;;;;;;;;20.30;56.10;;;;;;5063704;28;1590;-68
2021/04/04 11:26:39;;;;;;;;;;;20.30;56.10;;;;;;5057206;28;1255;-68
2021/04/04 11:29:11;;;;;;;;;;;20.30;56.10;;;;;;5060767;28;1322;-67
2021/04/04 11:31:37;;;;;;;;;;;20.30;56.10;;;;;;5063102;28;1268;-67
2021/04/04 11:34:26;;;;;;;;;;;20.30;56.10;;;;;;5061994;28;1608;-68
2021/04/04 11:36:51;;;;;;;;;;;20.20;56.00;;;;;;5059799;28;1827;-68
2021/04/04 11:39:17;;;;;;;;;;;20.30;56.00;;;;;;5059012;28;1900;-67
2021/04/04 11:42:02;;;;;;;;;;;20.30;56.00;;;;;;5071398;28;2112;-68
2021/04/04 11:44:31;;;;;;;;;;;20.30;56.00;;;;;;5067638;28;1964;-68
2021/04/04 11:47:00;;;;;;;;;;;20.20;56.00;;;;;;5070231;28;1207;-67
2021/04/04 11:49:35;;;;;;;;;;;20.20;56.00;;;;;;5072720;28;1211;-68
2021/04/04 11:52:07;;;;;;;;;;;20.20;56.00;;;;;;5073640;28;1106;-67
2021/04/04 11:54:51;;;;;;;;;;;20.30;56.00;;;;;;5073482;28;1304;-69
2021/04/04 11:57:22;;;;;;;;;;;20.30;56.00;;;;;;5062989;28;1202;-68
2021/04/04 11:59:51;;;;;;;;;;;20.20;56.00;;;;;;5074901;28;1305;-68
2021/04/04 12:02:20;;;;;;;;;;;20.30;56.10;;;;;;5063615;28;1910;-66
2021/04/04 12:04:59;;;;;;;;;;;20.20;56.00;;;;;;5061419;28;1512;-68
2021/04/04 12:07:24;;;;;;;;;;;20.20;56.10;;;;;;5060598;28;1264;-67
2021/04/04 12:09:50;;;;;;;;;;;20.20;56.10;;;;;;5071640;28;1367;-67
2021/04/04 12:12:16;;;;;;;;;;;20.20;56.10;;;;;;5071301;28;1245;-67
2021/04/04 12:14:54;;;;;;;;;;;20.20;56.10;;;;;;5072932;28;1163;-67
2021/04/04 12:17:20;;;;;;;;;;;20.20;56.10;;;;;;5071119;28;1286;-67
2021/04/04 12:19:45;;;;;;;;;;;20.20;56.20;;;;;;5073294;28;1301;-67
2021/04/04 12:22:11;;;;;;;;;;;20.20;56.20;;;;;;5072080;28;1905;-67
2021/04/04 12:24:39;;;;;;;;;;;20.20;56.20;;;;;;5073251;28;1437;-67
2021/04/04 12:27:05;;;;;;;;;;;20.20;56.10;;;;;;5072032;28;1293;-67
2021/04/04 12:29:39;;;;;;;;;;;20.20;56.10;;;;;;5072412;28;1345;-68
2021/04/04 12:32:05;;;;;;;;;;;20.20;56.10;;;;;;5073437;28;1246;-67
2021/04/04 12:34:30;;;;;;;;;;;20.20;56.10;;;;;;5071244;28;1391;-67
2021/04/04 12:36:56;;;;;;;;;;;20.30;56.00;;;;;;5071235;28;1367;-67
2021/04/04 12:39:21;;;;;;;;;;;20.40;55.90;;;;;;5071988;28;1318;-67
2021/04/04 12:41:47;;;;;;;;;;;20.50;55.80;;;;;;5072105;28;1963;-67
2021/04/04 12:44:31;;;;;;;;;;;20.60;55.60;;;;;;5072392;28;1292;-67
2021/04/04 12:47:03;;;;;;;;;;;20.70;55.40;;;;;;5071477;28;1346;-68
2021/04/04 12:49:29;;;;;;;;;;;20.70;55.70;;;;;;5070804;28;1329;-67
2021/04/04 12:51:54;;;;;;;;;;;20.80;55.00;;;;;;5072370;28;1317;-67
2021/04/04 12:54:23;;;;;;;;;;;20.90;54.80;;;;;;5072031;28;1254;-68
2021/04/04 12:56:49;;;;;;;;;;;21.00;54.70;;;;;;5072198;28;1075;-67
2021/04/04 12:59:14;;;;;;;;;;;21.10;54.60;;;;;;5069412;28;1852;-67
2021/04/04 13:01:42;;;;;;;;;;;21.10;54.40;;;;;;5065271;28;2052;-68
2021/04/04 13:04:17;;;;;;;;;;;21.10;54.30;;;;;;5070231;28;1190;-67
2021/04/04 13:06:43;;;;;;;;;;;21.20;54.20;;;;;;5072099;28;1047;-67
2021/04/04 13:09:09;;;;;;;;;;;21.20;54.10;;;;;;5071418;28;924;-67
2021/04/04 13:11:35;;;;;;;;;;;21.30;54.10;;;;;;5070592;28;1237;-67
2021/04/04 13:14:00;;;;;;;;;;;21.30;54.00;;;;;;5050475;28;1486;-68
2021/04/04 13:16:27;;;;;;;;;;;21.30;53.90;;;;;;5067513;28;1262;-67
2021/04/04 13:18:52;;;;;;;;;;;21.30;53.90;;;;;;5071307;28;1392;-67
2021/04/04 13:21:38;;;;;;;;;;;21.30;53.90;;;;;;5071864;28;1967;-68
2021/04/04 13:24:16;;;;;;;;;;;21.30;53.90;;;;;;5070369;28;1286;-66
2021/04/04 13:26:46;;;;;;;;;;;21.40;53.90;;;;;;5071134;28;1046;-67
2021/04/04 13:29:12;;;;;;;;;;;21.30;53.90;;;;;;5066807;28;1929;-67
2021/04/04 13:31:37;;;;;;;;;;;21.30;53.90;;;;;;5068841;28;1246;-67
2021/04/04 13:34:09;;;;;;;;;;;21.30;53.90;;;;;;5070123;28;1249;-68
2021/04/04 13:36:35;;;;;;;;;;;21.30;53.90;;;;;;5071346;28;1109;-67
2021/04/04 13:39:01;;;;;;;;;;;21.30;53.90;;;;;;5069683;28;1284;-67
2021/04/04 13:41:26;;;;;;;;;;;21.30;54.00;;;;;;5070791;28;1964;-67
2021/04/04 13:43:55;;;;;;;;;;;21.30;54.00;;;;;;5067444;28;1325;-67
2021/04/04 13:46:33;;;;;;;;;;;21.30;54.00;;;;;;5070367;28;1031;-66
2021/04/04 13:49:05;;;;;;;;;;;21.30;54.10;;;;;;5070433;28;1258;-67
2021/04/04 13:51:31;;;;;;;;;;;21.30;54.10;;;;;;5071987;28;1306;-67
2021/04/04 13:54:06;;;;;;;;;;;21.20;54.10;;;;;;5070944;28;1315;-67
2021/04/04 13:56:34;;;;;;;;;;;21.20;54.10;;;;;;5071158;28;1262;-67
2021/04/04 13:59:29;;;;;;;;;;;21.20;54.20;;;;;;5070646;28;1321;-67
2021/04/04 14:02:04;;;;;;;;;;;21.20;54.30;;;;;;5049786;28;1906;-68
2021/04/04 14:04:33;;;;;;;;;;;21.20;54.30;;;;;;5071279;28;1060;-70
2021/04/04 14:06:59;;;;;;;;;;;21.20;54.40;;;;;;5070126;28;1350;-70
2021/04/04 14:09:26;;;;;;;;;;;21.10;54.30;;;;;;5071218;28;1314;-70
2021/04/04 14:11:51;;;;;;;;;;;21.10;54.40;;;;;;5070998;28;1274;-70
2021/04/04 14:14:17;;;;;;;;;;;21.10;54.40;;;;;;5071076;28;1218;-70
2021/04/04 14:16:42;;;;;;;;;;;21.10;54.50;;;;;;5071580;28;1319;-69
2021/04/04 14:19:08;;;;;;;;;;;21.10;54.50;;;;;;5070413;28;1241;-70
2021/04/04 14:21:34;;;;;;;;;;;21.10;54.60;;;;;;5048969;28;1926;-68
2021/04/04 14:23:59;;;;;;;;;;;21.10;54.60;;;;;;5069647;28;1070;-70
2021/04/04 14:26:25;;;;;;;;;;;21.10;54.70;;;;;;5065929;28;1260;-70
2021/04/04 14:28:50;;;;;;;;;;;21.00;54.60;;;;;;5070244;28;1094;-69
2021/04/04 14:31:15;;;;;;;;;;;21.00;54.70;;;;;;5053104;28;1299;-69
2021/04/04 14:33:41;;;;;;;;;;;21.00;54.70;;;;;;5070842;28;1086;-69
2021/04/04 14:36:07;;;;;;;;;;;21.00;54.70;;;;;;5070970;28;1299;-70
2021/04/04 14:38:32;;;;;;;;;;;21.00;54.70;;;;;;5070078;28;1421;-70
2021/04/04 14:40:58;;;;;;;;;;;21.00;54.70;;;;;;5070132;28;1886;-70